Joggins, Canada
Current Conditions -  °F | °C
As of 9:00 AM on Tuesday 21 Oct 2014 (Local Time) from CYQM Reporting Station
Scattered Clouds Scattered Clouds  
Wind Chill: 29°   Ceiling: Unl
Heat Index: 36°   Visibility: 15mi
Dew Point: 28°   Wind: 8mph
Humidity: 75%   Direction: 240°WSW
Pressure: 30.09"   Gusts: NA
Location:  45.7°N, 64.43°W
Report Text: CYQM 211200Z 24007KT 15SM FEW050 FEW100 SCT220 02/M02 A3009 RMK SC1AC1CI2 SC TR SLP194
Loading
Personal Weather Stations






























Interactive Weather Map
Tropical Storm Tracking
New forecast layout! Learn more

10-Day Weather Forecast

Advertisements
Track Severe Weather on mobile